BAW985 EGKK-LFSB
Flight info
| Callsign | BAW985 |
|---|---|
| Flight time | 0h 59m |
| Altitude | 29000 |
| Route | SFD4Z SFD Y47 BENBO L612 HAWKE UL612 VEULE DCT TEPRI UN491 POGZI DCT GELTA DCT MANAG DCT MOTUK DCT LUL G42 ARPUS ARPUS9K |
| Aircraft | A320/H-SDE1FGHILORVWXY/L |
Departure
| Time | 2026-05-05 20:14 |
|---|---|
| Airport | London Gatwick Airport (EGKK) |
Arrival
| Time | 2026-05-05 21:13 |
|---|---|
| Airport | EuroAirport Basel–Mulhouse–Freiburg (LFSB) |
| Time | Latitude | Longitude | Altitude | Speed | Heading |
|---|---|---|---|---|---|
| 2026-05-05 19:31 | 51.15524 | -0.16656 | 211 ft | 0 kts | 348° |
| 2026-05-05 19:52 | 51.15508 | -0.16650 | 214 ft | 4 kts | 342° |
| 2026-05-05 19:52 | 51.15483 | -0.16634 | 216 ft | 4 kts | 327° |
| 2026-05-05 19:52 | 51.15464 | -0.16607 | 208 ft | 4 kts | 295° |
| 2026-05-05 19:53 | 51.15460 | -0.16582 | 204 ft | 0 kts | 257° |
| 2026-05-05 19:56 | 51.15457 | -0.16598 | 204 ft | 3 kts | 255° |
| 2026-05-05 19:56 | 51.15449 | -0.16655 | 207 ft | 7 kts | 256° |
| 2026-05-05 19:56 | 51.15451 | -0.16751 | 211 ft | 10 kts | 278° |
| 2026-05-05 19:57 | 51.15440 | -0.16883 | 204 ft | 14 kts | 259° |
| 2026-05-05 19:57 | 51.15426 | -0.16989 | 206 ft | 16 kts | 260° |
| 2026-05-05 19:57 | 51.15412 | -0.17090 | 208 ft | 0 kts | 258° |
| 2026-05-05 19:57 | 51.15411 | -0.17096 | 207 ft | 0 kts | 258° |
| 2026-05-05 19:58 | 51.15411 | -0.17098 | 206 ft | 1 kts | 258° |
| 2026-05-05 19:58 | 51.15410 | -0.17105 | 205 ft | 1 kts | 258° |
| 2026-05-05 19:59 | 51.15403 | -0.17133 | 215 ft | 5 kts | 244° |
| 2026-05-05 19:59 | 51.15386 | -0.17199 | 213 ft | 8 kts | 251° |
| 2026-05-05 19:59 | 51.15365 | -0.17299 | 207 ft | 8 kts | 257° |
| 2026-05-05 19:59 | 51.15343 | -0.17352 | 209 ft | 1 kts | 210° |
| 2026-05-05 20:00 | 51.15325 | -0.17369 | 210 ft | 5 kts | 212° |
| 2026-05-05 20:00 | 51.15302 | -0.17429 | 206 ft | 8 kts | 252° |
| 2026-05-05 20:00 | 51.15288 | -0.17538 | 203 ft | 12 kts | 260° |
| 2026-05-05 20:00 | 51.15268 | -0.17684 | 204 ft | 15 kts | 256° |
| 2026-05-05 20:01 | 51.15244 | -0.17859 | 214 ft | 16 kts | 257° |
| 2026-05-05 20:01 | 51.15220 | -0.18030 | 204 ft | 17 kts | 257° |
| 2026-05-05 20:01 | 51.15192 | -0.18237 | 207 ft | 21 kts | 258° |
| 2026-05-05 20:01 | 51.15164 | -0.18482 | 205 ft | 24 kts | 258° |
| 2026-05-05 20:02 | 51.15129 | -0.18743 | 214 ft | 21 kts | 258° |
| 2026-05-05 20:02 | 51.15095 | -0.18987 | 206 ft | 22 kts | 257° |
| 2026-05-05 20:02 | 51.15071 | -0.19161 | 213 ft | 13 kts | 258° |
| 2026-05-05 20:02 | 51.15067 | -0.19187 | 206 ft | 1 kts | 258° |
| 2026-05-05 20:03 | 51.15062 | -0.19216 | 204 ft | 5 kts | 251° |
| 2026-05-05 20:03 | 51.15033 | -0.19260 | 211 ft | 7 kts | 199° |
| 2026-05-05 20:03 | 51.14983 | -0.19275 | 209 ft | 8 kts | 206° |
| 2026-05-05 20:03 | 51.14953 | -0.19360 | 213 ft | 11 kts | 255° |
| 2026-05-05 20:04 | 51.14932 | -0.19499 | 208 ft | 15 kts | 257° |
| 2026-05-05 20:04 | 51.14908 | -0.19680 | 210 ft | 18 kts | 257° |
| 2026-05-05 20:04 | 51.14877 | -0.19897 | 211 ft | 22 kts | 257° |
| 2026-05-05 20:04 | 51.14841 | -0.20159 | 214 ft | 26 kts | 257° |
| 2026-05-05 20:05 | 51.14800 | -0.20461 | 212 ft | 29 kts | 258° |
| 2026-05-05 20:05 | 51.14758 | -0.20765 | 203 ft | 26 kts | 257° |
| 2026-05-05 20:05 | 51.14719 | -0.21049 | 204 ft | 27 kts | 259° |
| 2026-05-05 20:05 | 51.14689 | -0.21238 | 207 ft | 7 kts | 257° |
| 2026-05-05 20:06 | 51.14689 | -0.21243 | 207 ft | 1 kts | 262° |
| 2026-05-05 20:06 | 51.14686 | -0.21278 | 207 ft | 5 kts | 257° |
| 2026-05-05 20:06 | 51.14663 | -0.21324 | 214 ft | 0 kts | 211° |
| 2026-05-05 20:10 | 51.14651 | -0.21328 | 212 ft | 4 kts | 191° |
| 2026-05-05 20:10 | 51.14616 | -0.21325 | 204 ft | 0 kts | 171° |
| 2026-05-05 20:10 | 51.14609 | -0.21323 | 206 ft | 0 kts | 171° |
| 2026-05-05 20:11 | 51.14605 | -0.21322 | 207 ft | 2 kts | 169° |
| 2026-05-05 20:11 | 51.14577 | -0.21308 | 210 ft | 7 kts | 158° |
| 2026-05-05 20:12 | 51.14530 | -0.21244 | 211 ft | 11 kts | 113° |
| 2026-05-05 20:12 | 51.14522 | -0.21154 | 202 ft | 0 kts | 77° |
| 2026-05-05 20:12 | 51.14523 | -0.21151 | 202 ft | 3 kts | 77° |
| 2026-05-05 20:13 | 51.14574 | -0.20782 | 209 ft | 68 kts | 78° |
| 2026-05-05 20:13 | 51.14720 | -0.19730 | 208 ft | 123 kts | 78° |
| 2026-05-05 20:13 | 51.14936 | -0.18175 | 230 ft | 161 kts | 78° |
| 2026-05-05 20:13 | 51.15163 | -0.16346 | 599 ft | 178 kts | 79° |
| 2026-05-05 20:14 | 51.15403 | -0.14330 | 1086 ft | 190 kts | 79° |
| 2026-05-05 20:14 | 51.15680 | -0.12210 | 1611 ft | 200 kts | 78° |
| 2026-05-05 20:14 | 51.15998 | -0.09977 | 2056 ft | 216 kts | 77° |
| 2026-05-05 20:14 | 51.16198 | -0.07511 | 2586 ft | 233 kts | 98° |
| 2026-05-05 20:15 | 51.15491 | -0.05145 | 3160 ft | 252 kts | 132° |
| 2026-05-05 20:15 | 51.13942 | -0.03700 | 3637 ft | 272 kts | 164° |
| 2026-05-05 20:15 | 51.12079 | -0.03175 | 4594 ft | 274 kts | 173° |
| 2026-05-05 20:15 | 51.10165 | -0.02866 | 5443 ft | 278 kts | 169° |
| 2026-05-05 20:16 | 51.08270 | -0.02151 | 6304 ft | 282 kts | 164° |
| 2026-05-05 20:16 | 51.06388 | -0.01346 | 7112 ft | 285 kts | 166° |
| 2026-05-05 20:16 | 51.04410 | -0.00890 | 7896 ft | 289 kts | 174° |
| 2026-05-05 20:16 | 51.02393 | -0.00571 | 8705 ft | 293 kts | 174° |
| 2026-05-05 20:17 | 51.00349 | -0.00272 | 9513 ft | 296 kts | 175° |
| 2026-05-05 20:17 | 50.98286 | 0.00023 | 10250 ft | 300 kts | 175° |
| 2026-05-05 20:17 | 50.96134 | 0.00331 | 10538 ft | 322 kts | 175° |
| 2026-05-05 20:17 | 50.93854 | 0.00660 | 10682 ft | 345 kts | 175° |
| 2026-05-05 20:18 | 50.91394 | 0.01020 | 10824 ft | 366 kts | 174° |
| 2026-05-05 20:18 | 50.88821 | 0.01402 | 11251 ft | 375 kts | 174° |
| 2026-05-05 20:18 | 50.86212 | 0.01794 | 11858 ft | 378 kts | 174° |
| 2026-05-05 20:18 | 50.83580 | 0.02188 | 12475 ft | 382 kts | 174° |
| 2026-05-05 20:19 | 50.80927 | 0.02586 | 13154 ft | 384 kts | 174° |
| 2026-05-05 20:19 | 50.78257 | 0.02989 | 13760 ft | 387 kts | 174° |
| 2026-05-05 20:19 | 50.75570 | 0.03441 | 14323 ft | 390 kts | 169° |
| 2026-05-05 20:19 | 50.72924 | 0.04454 | 14833 ft | 393 kts | 164° |
| 2026-05-05 20:20 | 50.70275 | 0.05565 | 15377 ft | 395 kts | 164° |
| 2026-05-05 20:20 | 50.67646 | 0.06677 | 15895 ft | 398 kts | 164° |
| 2026-05-05 20:20 | 50.64957 | 0.07816 | 16413 ft | 401 kts | 164° |
| 2026-05-05 20:20 | 50.62250 | 0.08963 | 16929 ft | 405 kts | 164° |
| 2026-05-05 20:21 | 50.59519 | 0.10124 | 17449 ft | 408 kts | 164° |
| 2026-05-05 20:21 | 50.56765 | 0.11294 | 17964 ft | 412 kts | 163° |
| 2026-05-05 20:21 | 50.53980 | 0.12470 | 18454 ft | 415 kts | 164° |
| 2026-05-05 20:21 | 50.51178 | 0.13644 | 18918 ft | 419 kts | 164° |
| 2026-05-05 20:22 | 50.48349 | 0.14825 | 19364 ft | 422 kts | 164° |
| 2026-05-05 20:22 | 50.45542 | 0.15997 | 19853 ft | 424 kts | 164° |
| 2026-05-05 20:22 | 50.42681 | 0.17193 | 20320 ft | 427 kts | 164° |
| 2026-05-05 20:22 | 50.39806 | 0.18397 | 20798 ft | 429 kts | 164° |
| 2026-05-05 20:23 | 50.36919 | 0.19607 | 21248 ft | 431 kts | 164° |
| 2026-05-05 20:23 | 50.34010 | 0.20823 | 21653 ft | 434 kts | 164° |
| 2026-05-05 20:23 | 50.31085 | 0.22046 | 22066 ft | 436 kts | 163° |
| 2026-05-05 20:23 | 50.28142 | 0.23274 | 22447 ft | 439 kts | 164° |
| 2026-05-05 20:24 | 50.25178 | 0.24509 | 22816 ft | 443 kts | 163° |
| 2026-05-05 20:24 | 50.22211 | 0.25817 | 23243 ft | 443 kts | 160° |
| 2026-05-05 20:24 | 50.19415 | 0.27682 | 23573 ft | 444 kts | 151° |
| 2026-05-05 20:24 | 50.16885 | 0.30417 | 23950 ft | 442 kts | 136° |
| 2026-05-05 20:25 | 50.14887 | 0.34027 | 24297 ft | 441 kts | 123° |
| 2026-05-05 20:25 | 50.13186 | 0.38020 | 24633 ft | 442 kts | 122° |
| 2026-05-05 20:25 | 50.11502 | 0.42032 | 24998 ft | 443 kts | 122° |
| 2026-05-05 20:25 | 50.09823 | 0.46069 | 25338 ft | 445 kts | 122° |
| 2026-05-05 20:26 | 50.08142 | 0.50115 | 25705 ft | 446 kts | 122° |
| 2026-05-05 20:26 | 50.06453 | 0.54168 | 26047 ft | 446 kts | 122° |
| 2026-05-05 20:26 | 50.04768 | 0.58199 | 26577 ft | 443 kts | 122° |
| 2026-05-05 20:26 | 50.03112 | 0.62148 | 27131 ft | 439 kts | 122° |
| 2026-05-05 20:27 | 50.01448 | 0.66107 | 27702 ft | 436 kts | 123° |
| 2026-05-05 20:27 | 49.99789 | 0.70044 | 28185 ft | 435 kts | 123° |
| 2026-05-05 20:27 | 49.98132 | 0.73968 | 28642 ft | 434 kts | 123° |
| 2026-05-05 20:27 | 49.96473 | 0.77883 | 28895 ft | 433 kts | 123° |
| 2026-05-05 20:28 | 49.94802 | 0.81821 | 28921 ft | 440 kts | 123° |
| 2026-05-05 20:28 | 49.91419 | 0.89786 | 28917 ft | 443 kts | 123° |
| 2026-05-05 20:29 | 49.88032 | 0.97742 | 28912 ft | 447 kts | 123° |
| 2026-05-05 20:29 | 49.84603 | 1.05769 | 28912 ft | 446 kts | 123° |
| 2026-05-05 20:30 | 49.81167 | 1.13776 | 28909 ft | 446 kts | 123° |
| 2026-05-05 20:30 | 49.77735 | 1.21776 | 28899 ft | 446 kts | 123° |
| 2026-05-05 20:31 | 49.74294 | 1.29764 | 28896 ft | 446 kts | 123° |
| 2026-05-05 20:31 | 49.70869 | 1.37683 | 28891 ft | 446 kts | 123° |
| 2026-05-05 20:32 | 49.67419 | 1.45647 | 28883 ft | 446 kts | 123° |
| 2026-05-05 20:32 | 49.63956 | 1.53605 | 28883 ft | 447 kts | 123° |
| 2026-05-05 20:33 | 49.60484 | 1.61544 | 28886 ft | 447 kts | 123° |
| 2026-05-05 20:33 | 49.57031 | 1.69436 | 28874 ft | 447 kts | 123° |
| 2026-05-05 20:34 | 49.53532 | 1.77422 | 28874 ft | 447 kts | 123° |
| 2026-05-05 20:34 | 49.50074 | 1.85285 | 28892 ft | 446 kts | 123° |
| 2026-05-05 20:35 | 49.46592 | 1.93178 | 28874 ft | 446 kts | 123° |
| 2026-05-05 20:35 | 49.43109 | 2.01054 | 28867 ft | 445 kts | 123° |
| 2026-05-05 20:36 | 49.39624 | 2.08915 | 28860 ft | 445 kts | 123° |
| 2026-05-05 20:36 | 49.36151 | 2.16707 | 28856 ft | 445 kts | 123° |
| 2026-05-05 20:37 | 49.32649 | 2.24532 | 28882 ft | 445 kts | 123° |
| 2026-05-05 20:37 | 49.29804 | 2.30997 | 28879 ft | 444 kts | 119° |
| 2026-05-05 20:38 | 49.26394 | 2.40774 | 28838 ft | 446 kts | 117° |
| 2026-05-05 20:38 | 49.23995 | 2.47782 | 28830 ft | 448 kts | 117° |
| 2026-05-05 20:39 | 49.20693 | 2.57364 | 28827 ft | 450 kts | 117° |
| 2026-05-05 20:39 | 49.17787 | 2.65740 | 28828 ft | 450 kts | 117° |
| 2026-05-05 20:40 | 49.14850 | 2.74176 | 28833 ft | 451 kts | 117° |
| 2026-05-05 20:40 | 49.12470 | 2.80992 | 28834 ft | 451 kts | 117° |
| 2026-05-05 20:41 | 49.09533 | 2.89384 | 28815 ft | 451 kts | 117° |
| 2026-05-05 20:41 | 49.06139 | 2.99034 | 28817 ft | 451 kts | 118° |
| 2026-05-05 20:42 | 49.03880 | 3.05425 | 28826 ft | 451 kts | 118° |
| 2026-05-05 20:42 | 49.00935 | 3.13754 | 28816 ft | 450 kts | 118° |
| 2026-05-05 20:43 | 48.97965 | 3.22156 | 28815 ft | 450 kts | 118° |
| 2026-05-05 20:43 | 48.94500 | 3.31895 | 28810 ft | 450 kts | 118° |
| 2026-05-05 20:44 | 48.91994 | 3.38902 | 28803 ft | 450 kts | 118° |
| 2026-05-05 20:44 | 48.89022 | 3.47206 | 28804 ft | 450 kts | 118° |
| 2026-05-05 20:45 | 48.84521 | 3.59731 | 28797 ft | 450 kts | 119° |
| 2026-05-05 20:45 | 48.81509 | 3.68062 | 28798 ft | 450 kts | 119° |
| 2026-05-05 20:46 | 48.78497 | 3.76391 | 28809 ft | 451 kts | 119° |
| 2026-05-05 20:46 | 48.75492 | 3.84658 | 28817 ft | 450 kts | 119° |
| 2026-05-05 20:47 | 48.72464 | 3.92958 | 28815 ft | 450 kts | 119° |
| 2026-05-05 20:47 | 48.69438 | 4.01259 | 28818 ft | 450 kts | 119° |
| 2026-05-05 20:48 | 48.66399 | 4.09536 | 28822 ft | 450 kts | 119° |
| 2026-05-05 20:48 | 48.63372 | 4.17755 | 28822 ft | 450 kts | 119° |
| 2026-05-05 20:49 | 48.60321 | 4.26016 | 28818 ft | 450 kts | 119° |
| 2026-05-05 20:49 | 48.57266 | 4.34269 | 28807 ft | 450 kts | 120° |
| 2026-05-05 20:50 | 48.54202 | 4.42519 | 28811 ft | 451 kts | 120° |
| 2026-05-05 20:50 | 48.51149 | 4.50715 | 28805 ft | 451 kts | 120° |
| 2026-05-05 20:51 | 48.48082 | 4.58936 | 28807 ft | 452 kts | 120° |
| 2026-05-05 20:51 | 48.44993 | 4.67181 | 28819 ft | 452 kts | 120° |
| 2026-05-05 20:52 | 48.41895 | 4.75415 | 28807 ft | 452 kts | 121° |
| 2026-05-05 20:52 | 48.38812 | 4.83588 | 28819 ft | 452 kts | 121° |
| 2026-05-05 20:53 | 48.35704 | 4.91816 | 28819 ft | 452 kts | 121° |
| 2026-05-05 20:53 | 48.32589 | 5.00021 | 28835 ft | 452 kts | 121° |
| 2026-05-05 20:54 | 48.29463 | 5.08231 | 28832 ft | 453 kts | 121° |
| 2026-05-05 20:54 | 48.26345 | 5.16388 | 28823 ft | 453 kts | 122° |
| 2026-05-05 20:55 | 48.23204 | 5.24587 | 28835 ft | 453 kts | 122° |
| 2026-05-05 20:55 | 48.20063 | 5.32775 | 28845 ft | 453 kts | 122° |
| 2026-05-05 20:56 | 48.16909 | 5.40945 | 28858 ft | 452 kts | 122° |
| 2026-05-05 20:56 | 48.13767 | 5.49067 | 28890 ft | 449 kts | 122° |
| 2026-05-05 20:57 | 48.10666 | 5.57071 | 28873 ft | 446 kts | 122° |
| 2026-05-05 20:57 | 48.07561 | 5.65071 | 28885 ft | 444 kts | 124° |
| 2026-05-05 20:58 | 48.04445 | 5.73045 | 28873 ft | 444 kts | 124° |
| 2026-05-05 20:58 | 48.01321 | 5.81015 | 28603 ft | 445 kts | 124° |
| 2026-05-05 20:59 | 47.99756 | 5.85008 | 28324 ft | 446 kts | 124° |
| 2026-05-05 20:59 | 47.98187 | 5.89004 | 28054 ft | 447 kts | 124° |
| 2026-05-05 20:59 | 47.96636 | 5.92946 | 27142 ft | 448 kts | 124° |
| 2026-05-05 20:59 | 47.95043 | 5.96981 | 25946 ft | 454 kts | 124° |
| 2026-05-05 21:00 | 47.93430 | 6.01066 | 24775 ft | 460 kts | 124° |
| 2026-05-05 21:00 | 47.91811 | 6.05205 | 23634 ft | 465 kts | 122° |
| 2026-05-05 21:00 | 47.90596 | 6.09710 | 22343 ft | 473 kts | 106° |
| 2026-05-05 21:00 | 47.90040 | 6.14485 | 21081 ft | 462 kts | 101° |
| 2026-05-05 21:01 | 47.89590 | 6.19132 | 19954 ft | 447 kts | 101° |
| 2026-05-05 21:01 | 47.89155 | 6.23667 | 18723 ft | 438 kts | 100° |
| 2026-05-05 21:01 | 47.88726 | 6.28114 | 17390 ft | 430 kts | 100° |
| 2026-05-05 21:01 | 47.88305 | 6.32480 | 16051 ft | 423 kts | 100° |
| 2026-05-05 21:02 | 47.87890 | 6.36780 | 14853 ft | 417 kts | 100° |
| 2026-05-05 21:02 | 47.87482 | 6.40991 | 14283 ft | 417 kts | 100° |
| 2026-05-05 21:02 | 47.87070 | 6.45247 | 13615 ft | 410 kts | 100° |
| 2026-05-05 21:02 | 47.86662 | 6.49454 | 12606 ft | 410 kts | 100° |
| 2026-05-05 21:03 | 47.86257 | 6.53639 | 11903 ft | 406 kts | 100° |
| 2026-05-05 21:03 | 47.85855 | 6.57780 | 11220 ft | 402 kts | 101° |
| 2026-05-05 21:03 | 47.85457 | 6.61878 | 10542 ft | 398 kts | 101° |
| 2026-05-05 21:03 | 47.85066 | 6.65909 | 10227 ft | 385 kts | 101° |
| 2026-05-05 21:04 | 47.84689 | 6.69797 | 9549 ft | 381 kts | 101° |
| 2026-05-05 21:04 | 47.84305 | 6.73736 | 8259 ft | 385 kts | 101° |
| 2026-05-05 21:04 | 47.83932 | 6.77573 | 7484 ft | 370 kts | 101° |
| 2026-05-05 21:04 | 47.83576 | 6.81240 | 7208 ft | 348 kts | 101° |
| 2026-05-05 21:05 | 47.83239 | 6.84728 | 7062 ft | 336 kts | 101° |
| 2026-05-05 21:05 | 47.82911 | 6.88101 | 6990 ft | 322 kts | 101° |
| 2026-05-05 21:05 | 47.82603 | 6.91298 | 6996 ft | 299 kts | 102° |
| 2026-05-05 21:05 | 47.82312 | 6.94322 | 7002 ft | 294 kts | 102° |
| 2026-05-05 21:06 | 47.82020 | 6.97333 | 7001 ft | 295 kts | 102° |
| 2026-05-05 21:06 | 47.81724 | 7.00346 | 7013 ft | 294 kts | 102° |
| 2026-05-05 21:06 | 47.81430 | 7.03354 | 7005 ft | 294 kts | 101° |
| 2026-05-05 21:06 | 47.81140 | 7.06321 | 7005 ft | 293 kts | 102° |
| 2026-05-05 21:07 | 47.80845 | 7.09335 | 7007 ft | 295 kts | 101° |
| 2026-05-05 21:07 | 47.80551 | 7.12343 | 7001 ft | 294 kts | 101° |
| 2026-05-05 21:07 | 47.80257 | 7.15347 | 7007 ft | 293 kts | 102° |
| 2026-05-05 21:07 | 47.79963 | 7.18351 | 6990 ft | 293 kts | 101° |
| 2026-05-05 21:08 | 47.79663 | 7.21398 | 6343 ft | 305 kts | 101° |
| 2026-05-05 21:08 | 47.79348 | 7.24582 | 5445 ft | 315 kts | 101° |
| 2026-05-05 21:08 | 47.79037 | 7.27734 | 5122 ft | 298 kts | 101° |
| 2026-05-05 21:08 | 47.78751 | 7.30659 | 5000 ft | 285 kts | 101° |
| 2026-05-05 21:09 | 47.78464 | 7.33569 | 4969 ft | 285 kts | 101° |
| 2026-05-05 21:09 | 47.78172 | 7.36523 | 4259 ft | 289 kts | 101° |
| 2026-05-05 21:09 | 47.77619 | 7.39240 | 4052 ft | 272 kts | 128° |
| 2026-05-05 21:09 | 47.76250 | 7.41039 | 3935 ft | 263 kts | 157° |
| 2026-05-05 21:10 | 47.74580 | 7.42124 | 3652 ft | 263 kts | 162° |
| 2026-05-05 21:10 | 47.72907 | 7.43202 | 3311 ft | 264 kts | 159° |
| 2026-05-05 21:10 | 47.71287 | 7.44330 | 2964 ft | 253 kts | 159° |
| 2026-05-05 21:10 | 47.69796 | 7.45385 | 2650 ft | 229 kts | 159° |
| 2026-05-05 21:11 | 47.68426 | 7.46345 | 2363 ft | 207 kts | 159° |
| 2026-05-05 21:11 | 47.67180 | 7.47215 | 2115 ft | 188 kts | 159° |
| 2026-05-05 21:11 | 47.66033 | 7.48014 | 1867 ft | 178 kts | 158° |
| 2026-05-05 21:11 | 47.64927 | 7.48783 | 1639 ft | 175 kts | 156° |
| 2026-05-05 21:12 | 47.63841 | 7.49540 | 1366 ft | 169 kts | 155° |
| 2026-05-05 21:12 | 47.62788 | 7.50279 | 1144 ft | 166 kts | 154° |
| 2026-05-05 21:12 | 47.61741 | 7.51001 | 949 ft | 166 kts | 155° |
| 2026-05-05 21:12 | 47.60773 | 7.51675 | 889 ft | 127 kts | 153° |
| 2026-05-05 21:13 | 47.60227 | 7.52066 | 892 ft | 57 kts | 155° |
| 2026-05-05 21:13 | 47.60129 | 7.52202 | 893 ft | 12 kts | 88° |
| 2026-05-05 21:13 | 47.60162 | 7.52353 | 888 ft | 18 kts | 65° |
| 2026-05-05 21:13 | 47.60163 | 7.52491 | 887 ft | 14 kts | 136° |